Time;durP1;ratioP1;P1;durP2;ratioP2;P2;SDS_P1;SDS_P2;PMS_P1;PMS_P2;Temp;Humidity;BMP_temperature;BMP_pressure;BME280_temperature;BME280_humidity;BME280_pressure;Samples;Min_cycle;Max_cycle;Signal;HPM_P1;HPM_P2
2023/10/15 00:00:56;;;;;;;6.50;1.38;;;;;;;8.32;nan;101876.91;5050151;28;20029;-77
2023/10/15 00:03:21;;;;;;;6.57;1.52;;;;;;;8.30;nan;101874.34;5048611;28;20116;-77
2023/10/15 00:05:46;;;;;;;8.57;2.03;;;;;;;8.26;nan;101880.78;5048352;28;20138;-77
2023/10/15 00:08:12;;;;;;;12.82;1.65;;;;;;;8.21;nan;101874.91;5049432;28;20025;-76
2023/10/15 00:10:37;;;;;;;5.38;1.00;;;;;;;8.15;nan;101878.84;5034036;28;20054;-76
2023/10/15 00:13:04;;;;;;;9.13;1.38;;;;;;;8.12;nan;101874.56;5029756;28;20133;-77
2023/10/15 00:15:30;;;;;;;8.45;1.50;;;;;;;8.11;nan;101874.66;5029985;28;20041;-76
2023/10/15 00:18:01;;;;;;;8.13;1.48;;;;;;;8.09;nan;101869.47;5030023;28;20030;-89
2023/10/15 00:20:38;;;;;;;7.63;1.45;;;;;;;8.08;nan;101862.44;5030173;28;20041;-77
2023/10/15 00:23:06;;;;;;;5.80;1.30;;;;;;;8.07;nan;101866.03;5030075;28;20434;-77
2023/10/15 00:25:36;;;;;;;10.32;1.60;;;;;;;8.10;nan;101878.25;5029626;28;20025;-77
2023/10/15 00:28:06;;;;;;;7.45;1.35;;;;;;;8.10;nan;101878.25;5029492;28;20175;-77
2023/10/15 00:30:32;;;;;;;2.25;1.17;;;;;;;8.12;nan;101885.19;5030061;28;20134;-77
2023/10/15 00:32:59;;;;;;;6.53;1.50;;;;;;;8.14;nan;101871.81;5029578;28;20426;-88
2023/10/15 00:35:25;;;;;;;9.02;1.15;;;;;;;8.19;nan;101890.09;5029948;28;20030;-77
2023/10/15 00:37:57;;;;;;;8.65;1.38;;;;;;;8.19;nan;101906.84;5029789;28;20095;-76
2023/10/15 00:40:24;;;;;;;9.15;1.35;;;;;;;8.21;nan;101893.47;5029808;28;20029;-77
2023/10/15 00:42:51;;;;;;;9.48;1.80;;;;;;;8.20;nan;101894.44;5030007;28;20474;-77
2023/10/15 00:45:18;;;;;;;11.18;1.50;;;;;;;8.18;nan;101891.03;5033052;28;20040;-76
2023/10/15 00:50:38;;;;;;;12.85;2.25;;;;;;;8.11;nan;101887.94;5033084;28;20033;-77
2023/10/15 00:53:10;;;;;;;7.78;1.27;;;;;;;8.07;nan;101889.91;5033084;28;20140;-77
2023/10/15 00:55:38;;;;;;;7.28;1.33;;;;;;;8.12;nan;101892.25;5033016;28;20377;-78
2023/10/15 00:58:08;;;;;;;6.65;1.33;;;;;;;8.05;nan;101889.16;5015009;28;20440;-78
2023/10/15 01:00:52;;;;;;;13.32;1.80;;;;;;;8.00;nan;101882.44;5014973;28;20029;-77
2023/10/15 01:03:25;;;;;;;8.70;1.52;;;;;;;7.89;nan;101888.41;5033157;28;20394;-76
2023/10/15 01:05:54;;;;;;;13.52;1.88;;;;;;;7.83;nan;101896.75;5032895;28;20034;-77
2023/10/15 01:08:26;;;;;;;12.70;1.55;;;;;;;7.79;nan;101908.47;5015126;28;20048;-77
2023/10/15 01:11:11;;;;;;;4.10;1.40;;;;;;;7.74;nan;101920.22;5033221;28;20085;-77
2023/10/15 01:13:40;;;;;;;15.13;2.67;;;;;;;7.68;nan;101928.53;5014965;28;20434;-80
2023/10/15 01:16:10;;;;;;;13.10;1.65;;;;;;;7.55;nan;101919.63;5015484;28;20032;-79
2023/10/15 01:18:36;;;;;;;9.60;2.05;;;;;;;7.40;nan;101914.34;5016245;28;20120;-79
2023/10/15 01:21:04;;;;;;;9.88;1.50;;;;;;;7.29;nan;101916.75;5015488;28;20041;-79
2023/10/15 01:26:23;;;;;;;4.22;1.10;;;;;;;7.14;nan;101905.28;5034175;28;20049;-79
2023/10/15 01:28:48;;;;;;;8.18;1.40;;;;;;;7.01;nan;101899.00;5033858;28;20029;-78
2023/10/15 01:31:15;;;;;;;4.55;1.10;;;;;;;6.88;nan;101899.72;5015742;28;20052;-79
2023/10/15 01:33:49;;;;;;;6.63;1.48;;;;;;;6.78;nan;101898.56;5033500;28;20469;-79
2023/10/15 01:36:19;;;;;;;7.10;1.48;;;;;;;6.74;nan;101901.47;5033290;28;20532;-79
2023/10/15 01:38:45;;;;;;;5.78;1.30;;;;;;;6.73;nan;101900.59;5033548;28;20045;-79
2023/10/15 01:41:19;;;;;;;8.88;1.85;;;;;;;6.76;nan;101896.94;5015251;28;20029;-78
2023/10/15 01:43:46;;;;;;;7.78;1.33;;;;;;;6.75;nan;101895.22;5033570;28;20030;-79
2023/10/15 01:46:25;;;;;;;5.72;1.40;;;;;;;6.74;nan;101901.47;5015280;28;20041;-78
2023/10/15 01:48:50;;;;;;;3.92;0.90;;;;;;;6.71;nan;101898.03;5033037;28;20034;-79
2023/10/15 01:51:16;;;;;;;10.52;1.25;;;;;;;6.68;nan;101905.31;5033187;28;20033;-79
2023/10/15 01:53:41;;;;;;;5.35;1.25;;;;;;;6.61;nan;101907.44;5033578;28;20064;-78
2023/10/15 01:56:16;;;;;;;6.35;1.10;;;;;;;6.55;nan;101905.16;5032196;28;20123;-78
2023/10/15 01:58:44;;;;;;;5.00;1.00;;;;;;;6.56;nan;101903.38;5016966;28;20128;-78
2023/10/15 02:01:49;;;;;;;11.90;1.33;;;;;;;6.49;nan;101894.91;5032683;28;20039;-78
2023/10/15 02:04:26;;;;;;;11.98;1.67;;;;;;;6.46;nan;101889.81;5029083;28;20081;-78
2023/10/15 02:06:53;;;;;;;3.42;0.95;;;;;;;6.45;nan;101893.38;5032169;28;20033;-78
2023/10/15 02:09:22;;;;;;;3.72;1.17;;;;;;;6.43;nan;101933.13;5032293;28;20084;-78
2023/10/15 02:11:48;;;;;;;9.38;1.58;;;;;;;6.48;nan;101977.84;5014372;28;20033;-78
2023/10/15 02:14:27;;;;;;;12.45;2.10;;;;;;;6.43;nan;101971.94;5031805;28;20040;-76
2023/10/15 02:16:53;;;;;;;8.85;1.00;;;;;;;6.28;nan;101968.34;5032018;28;20137;-76
2023/10/15 02:22:00;;;;;;;5.25;1.38;;;;;;;6.08;nan;101962.34;5032146;28;20041;-79
2023/10/15 02:24:25;;;;;;;2.70;1.05;;;;;;;6.06;nan;101955.44;5032377;28;20041;-77
2023/10/15 02:26:51;;;;;;;5.43;1.00;;;;;;;6.04;nan;101938.81;5031816;28;20092;-78
2023/10/15 02:29:34;;;;;;;6.20;0.98;;;;;;;6.00;nan;101938.13;5031773;28;20099;-79
2023/10/15 02:32:20;;;;;;;3.67;0.80;;;;;;;5.94;nan;101943.69;5031847;28;20402;-78
2023/10/15 02:34:50;;;;;;;3.95;0.95;;;;;;;5.88;nan;101957.25;5031817;28;20123;-78
2023/10/15 02:37:18;;;;;;;6.88;1.35;;;;;;;5.88;nan;101960.75;5031641;28;20041;-79
2023/10/15 02:39:50;;;;;;;7.43;1.17;;;;;;;5.81;nan;101962.84;5031422;28;20041;-78
2023/10/15 02:42:16;;;;;;;4.38;1.42;;;;;;;5.76;nan;101948.16;5014659;28;20100;-77
2023/10/15 02:44:42;;;;;;;2.35;0.80;;;;;;;5.68;nan;101953.03;5013679;28;20375;-78
2023/10/15 02:47:10;;;;;;;1.85;1.00;;;;;;;5.60;nan;101913.81;5031529;28;20037;-81
2023/10/15 02:49:50;;;;;;;2.42;0.77;;;;;;;5.51;nan;101904.59;5013359;28;20463;-79
2023/10/15 02:52:19;;;;;;;3.70;1.38;;;;;;;5.41;nan;101895.44;5031732;28;20128;-80
2023/10/15 02:54:45;;;;;;;3.50;0.98;;;;;;;5.40;nan;101906.91;5013943;28;20033;-78
2023/10/15 02:57:18;;;;;;;3.38;1.00;;;;;;;5.40;nan;101907.75;5031064;28;20400;-78
2023/10/15 02:59:53;;;;;;;3.40;1.15;;;;;;;5.39;nan;101899.91;5031715;28;20033;-79
2023/10/15 03:02:21;;;;;;;1.67;0.73;;;;;;;5.41;nan;101900.72;5031464;28;20153;-81
2023/10/15 03:04:53;;;;;;;5.72;0.90;;;;;;;5.44;nan;101903.19;5031328;28;20033;-78
2023/10/15 03:07:25;;;;;;;3.92;1.17;;;;;;;5.45;nan;101908.41;5030935;28;20033;-81
2023/10/15 03:10:03;;;;;;;2.45;0.90;;;;;;;5.45;nan;101894.34;5030817;28;20231;-80
2023/10/15 03:12:33;;;;;;;2.13;1.13;;;;;;;5.50;nan;101902.88;5014926;28;20049;-81
2023/10/15 03:15:00;;;;;;;7.32;1.20;;;;;;;5.57;nan;101921.88;5031309;28;20065;-80
2023/10/15 03:17:29;;;;;;;3.90;1.30;;;;;;;5.62;nan;101920.69;5031107;28;20040;-79
2023/10/15 03:19:55;;;;;;;4.15;1.27;;;;;;;5.66;nan;101937.25;5013353;28;20037;-80
2023/10/15 03:22:24;;;;;;;3.80;1.20;;;;;;;5.72;nan;101933.41;5030788;28;20040;-79
2023/10/15 03:24:53;;;;;;;5.60;1.30;;;;;;;5.73;nan;101927.22;5013200;28;20030;-79
2023/10/15 03:27:23;;;;;;;5.13;1.25;;;;;;;5.75;nan;101941.22;5031060;28;20033;-79
2023/10/15 03:29:50;;;;;;;3.03;1.30;;;;;;;5.81;nan;101932.94;5013245;28;20505;-79
2023/10/15 03:32:16;;;;;;;9.98;1.67;;;;;;;5.82;nan;101938.16;5030605;28;20458;-79
2023/10/15 03:34:47;;;;;;;13.98;2.65;;;;;;;5.81;nan;101943.53;5030493;28;20037;-79
2023/10/15 03:37:15;;;;;;;4.93;1.30;;;;;;;5.82;nan;101937.28;5031123;28;20040;-79
2023/10/15 03:42:09;;;;;;;4.60;1.40;;;;;;;5.80;nan;101945.28;5013156;28;20243;-79
2023/10/15 03:44:47;;;;;;;11.35;1.73;;;;;;;5.76;nan;101946.41;5030860;28;20034;-79
2023/10/15 03:47:16;;;;;;;11.00;1.77;;;;;;;5.74;nan;101944.78;5030911;28;20076;-79
2023/10/15 03:49:46;;;;;;;10.02;1.77;;;;;;;5.73;nan;101943.94;5013136;28;20103;-79
2023/10/15 03:52:20;;;;;;;12.25;1.92;;;;;;;5.77;nan;101945.44;5030555;28;20390;-79
2023/10/15 03:54:47;;;;;;;9.38;1.85;;;;;;;5.74;nan;101942.13;5030544;28;20449;-79
2023/10/15 03:57:17;;;;;;;10.65;1.60;;;;;;;5.70;nan;101943.22;5030105;28;20034;-79
2023/10/15 03:59:44;;;;;;;11.60;1.73;;;;;;;5.68;nan;101942.47;5013352;28;20121;-79
2023/10/15 04:02:22;;;;;;;10.77;1.63;;;;;;;5.66;nan;101947.81;5030390;28;20037;-79
2023/10/15 04:05:00;;;;;;;9.35;1.60;;;;;;;5.70;nan;101949.34;5030790;28;20160;-79
2023/10/15 04:07:26;;;;;;;9.73;1.65;;;;;;;5.75;nan;101936.75;5030045;28;20484;-79
2023/10/15 04:09:52;;;;;;;19.17;1.77;;;;;;;5.82;nan;101938.16;5032275;28;20400;-79
2023/10/15 04:12:18;;;;;;;8.15;1.77;;;;;;;5.91;nan;101938.59;5029937;28;20094;-78
2023/10/15 04:14:44;;;;;;;11.02;1.35;;;;;;;5.98;nan;101937.34;5030562;28;20074;-79
2023/10/15 04:17:10;;;;;;;8.90;1.50;;;;;;;6.07;nan;101931.56;5012690;28;20332;-80
2023/10/15 04:19:36;;;;;;;11.43;1.90;;;;;;;6.13;nan;101931.22;5033709;28;20124;-78
2023/10/15 04:22:14;;;;;;;6.68;1.50;;;;;;;6.22;nan;101929.03;5034274;28;20073;-78
2023/10/15 04:24:41;;;;;;;6.07;1.63;;;;;;;6.33;nan;101921.38;5034445;28;20485;-79
2023/10/15 04:27:14;;;;;;;6.25;1.42;;;;;;;6.48;nan;101925.81;5034217;28;20423;-79
2023/10/15 04:29:47;;;;;;;9.00;1.85;;;;;;;6.69;nan;101939.59;5034319;28;20401;-77
2023/10/15 04:32:17;;;;;;;12.25;1.77;;;;;;;7.01;nan;101950.13;5034325;28;20064;-80
2023/10/15 04:34:42;;;;;;;7.88;1.73;;;;;;;7.13;nan;101960.97;5034200;28;20152;-79
2023/10/15 04:37:10;;;;;;;11.88;2.08;;;;;;;7.17;nan;101970.44;5015659;28;20528;-78
2023/10/15 04:39:51;;;;;;;10.32;1.63;;;;;;;7.10;nan;101969.06;5015869;28;20436;-79
2023/10/15 04:42:41;;;;;;;;;;;;;;;6.99;nan;101972.34;5034695;28;20033;-79
2023/10/15 04:45:03;;;;;;;8.57;1.67;;;;;;;6.80;nan;101969.91;5033384;28;20070;-78
2023/10/15 04:47:38;;;;;;;11.43;1.48;;;;;;;6.67;nan;101960.00;5015854;28;20041;-78
2023/10/15 04:50:15;;;;;;;11.13;1.52;;;;;;;6.55;nan;101963.31;5033871;28;20084;-78
2023/10/15 04:52:42;;;;;;;3.45;0.88;;;;;;;6.43;nan;101971.94;5034078;28;20045;-79
2023/10/15 04:55:08;;;;;;;4.70;1.17;;;;;;;6.35;nan;101970.56;5033847;28;20112;-79
2023/10/15 04:57:34;;;;;;;2.50;0.93;;;;;;;6.29;nan;101970.91;5033745;28;20255;-83
2023/10/15 04:59:59;;;;;;;8.15;1.10;;;;;;;6.25;nan;101965.88;5033834;28;20488;-78
2023/10/15 05:02:24;;;;;;;12.55;1.35;;;;;;;6.18;nan;101971.50;5033735;28;20040;-78
2023/10/15 05:04:50;;;;;;;5.78;0.90;;;;;;;6.15;nan;101970.78;5033606;28;20392;-80
2023/10/15 05:07:15;;;;;;;4.85;1.10;;;;;;;6.11;nan;101980.69;5033717;28;20473;-78
2023/10/15 05:09:44;;;;;;;4.15;1.05;;;;;;;6.11;nan;101970.13;5032877;28;20052;-80
2023/10/15 05:12:09;;;;;;;7.18;1.10;;;;;;;6.10;nan;101967.56;5033518;28;20156;-79
2023/10/15 05:14:38;;;;;;;6.50;2.35;;;;;;;6.06;nan;101966.00;5033037;28;20124;-81
2023/10/15 05:17:04;;;;;;;6.28;1.40;;;;;;;6.07;nan;101957.16;5015411;28;20072;-80
2023/10/15 05:19:29;;;;;;;7.32;0.73;;;;;;;6.07;nan;101962.44;5033647;28;20039;-79
2023/10/15 05:21:56;;;;;;;8.85;1.20;;;;;;;6.03;nan;101966.16;5033362;28;20035;-80
2023/10/15 05:24:21;;;;;;;2.05;0.80;;;;;;;5.95;nan;101964.75;5015676;28;20030;-79
2023/10/15 05:26:47;;;;;;;4.28;1.10;;;;;;;5.86;nan;101965.25;5015223;28;20045;-80
2023/10/15 05:29:14;;;;;;;9.13;1.13;;;;;;;5.81;nan;101960.22;5032282;28;20037;-80
2023/10/15 05:31:41;;;;;;;4.80;1.10;;;;;;;5.78;nan;101963.00;5014951;28;20033;-80
2023/10/15 05:34:07;;;;;;;6.55;1.20;;;;;;;5.80;nan;101968.22;5032771;28;20041;-80
2023/10/15 05:36:36;;;;;;;6.18;1.25;;;;;;;5.93;nan;101977.19;5033041;28;20044;-81
2023/10/15 05:39:04;;;;;;;3.80;1.00;;;;;;;6.05;nan;101973.09;5033181;28;20040;-80
2023/10/15 05:41:34;;;;;;;7.85;1.05;;;;;;;6.09;nan;101965.84;5032978;28;20087;-81
2023/10/15 05:44:00;;;;;;;9.88;1.20;;;;;;;6.13;nan;101968.22;5033114;28;20040;-82
2023/10/15 05:46:27;;;;;;;6.72;1.50;;;;;;;6.16;nan;101985.72;5032762;28;20450;-81
2023/10/15 05:48:53;;;;;;;8.50;1.55;;;;;;;6.22;nan;101982.75;5014754;28;20113;-80
2023/10/15 05:51:20;;;;;;;8.73;1.65;;;;;;;6.34;nan;101987.38;5032683;28;20033;-82
2023/10/15 05:53:46;;;;;;;6.90;1.73;;;;;;;6.44;nan;101989.53;5032934;28;20389;-81
2023/10/15 05:56:11;;;;;;;4.25;1.30;;;;;;;6.49;nan;101998.03;5032846;28;20036;-82
2023/10/15 05:58:37;;;;;;;6.13;2.03;;;;;;;6.46;nan;102000.84;5033118;28;20037;-81
2023/10/15 06:01:03;;;;;;;9.90;1.40;;;;;;;6.47;nan;102013.16;5014736;28;20051;-81
2023/10/15 06:03:32;;;;;;;8.27;1.80;;;;;;;6.51;nan;101998.84;5032584;28;20116;-80
2023/10/15 06:05:58;;;;;;;6.80;1.38;;;;;;;6.46;nan;101993.75;5014714;28;20057;-81
2023/10/15 06:08:23;;;;;;;9.18;1.45;;;;;;;6.43;nan;102001.88;5032419;28;20053;-82
2023/10/15 06:10:49;;;;;;;8.38;1.42;;;;;;;6.35;nan;101996.16;5032856;28;20500;-79
2023/10/15 06:13:14;;;;;;;9.93;1.75;;;;;;;6.24;nan;101999.38;5032054;28;20034;-79
2023/10/15 06:15:40;;;;;;;9.02;1.52;;;;;;;6.18;nan;101997.09;5031946;28;20175;-80
2023/10/15 06:18:06;;;;;;;7.20;1.30;;;;;;;6.19;nan;102009.34;5032522;28;20075;-81
2023/10/15 06:20:31;;;;;;;12.77;1.67;;;;;;;6.28;nan;102019.41;5032171;28;20109;-79
2023/10/15 06:22:56;;;;;;;12.98;1.67;;;;;;;6.34;nan;102016.47;5031960;28;20444;-80
2023/10/15 06:25:23;;;;;;;11.27;1.70;;;;;;;6.39;nan;102018.84;5032154;28;20167;-79
2023/10/15 06:27:49;;;;;;;13.75;2.13;;;;;;;6.43;nan;102011.59;5032237;28;20104;-83
2023/10/15 06:30:16;;;;;;;6.57;1.17;;;;;;;6.45;nan;102017.66;5014097;28;20037;-81
2023/10/15 06:32:48;;;;;;;5.13;1.17;;;;;;;6.52;nan;102019.91;5032031;28;20466;-81
2023/10/15 06:35:18;;;;;;;8.82;1.20;;;;;;;6.56;nan;102010.00;5031985;28;20521;-80
2023/10/15 06:37:47;;;;;;;5.55;1.38;;;;;;;6.64;nan;102004.28;5032614;28;20036;-80
2023/10/15 06:40:15;;;;;;;4.60;1.30;;;;;;;6.72;nan;102004.72;5031531;28;20061;-81
2023/10/15 06:42:41;;;;;;;11.43;1.45;;;;;;;6.81;nan;102016.59;5031572;28;20044;-78
2023/10/15 06:45:07;;;;;;;6.20;1.48;;;;;;;6.91;nan;102012.44;5031663;28;20176;-80
2023/10/15 06:47:35;;;;;;;7.57;1.30;;;;;;;7.00;nan;102008.44;5031773;28;20501;-80
2023/10/15 06:50:05;;;;;;;4.05;0.93;;;;;;;7.07;nan;102009.81;5013507;28;20091;-81
2023/10/15 06:52:32;;;;;;;7.70;1.20;;;;;;;7.20;nan;102021.38;5031949;28;20025;-79
2023/10/15 06:54:57;;;;;;;5.70;1.38;;;;;;;7.38;nan;102035.34;5031410;28;20033;-81
2023/10/15 06:57:23;;;;;;;14.95;2.65;;;;;;;7.48;nan;102033.03;5013447;28;20056;-80
2023/10/15 06:59:52;;;;;;;14.60;1.70;;;;;;;7.47;nan;102047.22;5031605;28;20048;-81
2023/10/15 07:02:17;;;;;;;6.18;1.38;;;;;;;7.39;nan;102046.81;5031530;28;20029;-80
2023/10/15 07:04:43;;;;;;;10.57;1.45;;;;;;;7.30;nan;102053.50;5031479;28;20037;-82
2023/10/15 07:07:08;;;;;;;5.28;1.10;;;;;;;7.21;nan;102049.56;5031090;28;20421;-79
2023/10/15 07:09:35;;;;;;;3.58;1.00;;;;;;;7.14;nan;102050.88;5031140;28;20410;-79
2023/10/15 07:12:00;;;;;;;7.60;1.52;;;;;;;7.06;nan;102061.88;5031087;28;20121;-79
2023/10/15 07:14:25;;;;;;;6.80;1.40;;;;;;;7.00;nan;102072.81;5031119;28;20113;-79
2023/10/15 07:16:51;;;;;;;8.95;1.30;;;;;;;6.97;nan;102065.06;5031299;28;20125;-80
2023/10/15 07:19:16;;;;;;;5.97;0.98;;;;;;;6.96;nan;102070.44;5030838;28;20072;-79
2023/10/15 07:21:42;;;;;;;7.07;1.20;;;;;;;7.00;nan;102071.94;5031073;28;20469;-79
2023/10/15 07:24:11;;;;;;;8.23;1.15;;;;;;;6.98;nan;102079.97;5012852;28;20037;-79
2023/10/15 07:26:39;;;;;;;6.07;1.20;;;;;;;7.01;nan;102092.19;5013916;28;20033;-78
2023/10/15 07:29:05;;;;;;;7.38;1.33;;;;;;;7.06;nan;102085.72;5030935;28;20048;-78
2023/10/15 07:31:30;;;;;;;11.32;1.27;;;;;;;7.20;nan;102092.88;5015321;28;20034;-78
2023/10/15 07:33:55;;;;;;;3.78;1.17;;;;;;;7.37;nan;102089.25;5030869;28;20037;-78
2023/10/15 07:36:22;;;;;;;6.55;1.23;;;;;;;7.54;nan;102087.47;5030807;28;20378;-77
2023/10/15 07:38:47;;;;;;;5.88;1.27;;;;;;;7.66;nan;102089.38;5030750;28;20497;-77
2023/10/15 07:41:13;;;;;;;7.82;1.50;;;;;;;7.79;nan;102099.25;5012871;28;20136;-77
2023/10/15 07:43:38;;;;;;;6.63;1.08;;;;;;;7.89;nan;102101.25;5030651;28;20030;-77
2023/10/15 07:46:04;;;;;;;11.93;1.60;;;;;;;7.97;nan;102115.88;5030794;28;20457;-76
2023/10/15 07:48:29;;;;;;;9.43;1.48;;;;;;;8.02;nan;102117.31;5030732;28;20509;-76
2023/10/15 07:50:55;;;;;;;10.32;1.88;;;;;;;8.04;nan;102115.41;5030695;28;20057;-81
2023/10/15 07:53:21;;;;;;;8.85;1.52;;;;;;;8.04;nan;102122.50;5032199;28;20389;-80
2023/10/15 07:55:46;;;;;;;11.27;2.13;;;;;;;8.06;nan;102124.13;5034883;28;20110;-77
2023/10/15 07:58:12;;;;;;;15.45;2.42;;;;;;;8.08;nan;102127.53;5034711;28;20041;-78
2023/10/15 08:00:37;;;;;;;27.20;3.28;;;;;;;8.10;nan;102127.44;5016803;28;20029;-79
2023/10/15 08:03:07;;;;;;;14.35;2.50;;;;;;;8.11;nan;102122.06;5034545;28;20296;-78
2023/10/15 08:05:33;;;;;;;13.10;2.55;;;;;;;8.10;nan;102133.59;5034567;28;20044;-78
2023/10/15 08:07:58;;;;;;;14.10;1.77;;;;;;;8.08;nan;102129.34;5034087;28;20025;-80
2023/10/15 08:10:25;;;;;;;16.27;1.98;;;;;;;8.09;nan;102149.59;5034227;28;20045;-78
2023/10/15 08:12:51;;;;;;;11.52;2.08;;;;;;;8.02;nan;102174.78;5034499;28;20072;-79
2023/10/15 08:15:18;;;;;;;6.20;1.10;;;;;;;7.69;nan;102175.78;5034728;28;20052;-79
2023/10/15 08:17:44;;;;;;;9.75;1.42;;;;;;;7.36;nan;102174.06;5034134;28;20405;-80
2023/10/15 08:20:09;;;;;;;8.90;1.30;;;;;;;7.03;nan;102173.22;5034287;28;20037;-80
2023/10/15 08:22:43;;;;;;;9.98;1.33;;;;;;;6.77;nan;102179.91;5034288;28;20026;-81
2023/10/15 08:25:18;;;;;;;4.78;0.93;;;;;;;6.58;nan;102181.81;5034145;28;20462;-81
2023/10/15 08:27:44;;;;;;;6.55;1.10;;;;;;;6.46;nan;102192.06;5017865;28;20151;-80
2023/10/15 08:30:12;;;;;;;8.63;1.60;;;;;;;6.41;nan;102191.47;5033810;28;20441;-80
2023/10/15 08:32:39;;;;;;;11.73;1.55;;;;;;;6.45;nan;102184.22;5034220;28;20058;-80
2023/10/15 08:35:09;;;;;;;5.35;1.48;;;;;;;6.53;nan;102193.47;5033972;28;20435;-79
2023/10/15 08:37:35;;;;;;;7.40;1.40;;;;;;;6.74;nan;102197.72;5034193;28;20092;-79
2023/10/15 08:40:05;;;;;;;9.68;1.50;;;;;;;7.01;nan;102213.91;5034069;28;20033;-79
2023/10/15 08:42:37;;;;;;;7.05;1.50;;;;;;;7.37;nan;102220.81;5034348;28;20033;-81
2023/10/15 08:45:05;;;;;;;5.50;0.73;;;;;;;7.40;nan;102194.16;5033834;28;20481;-77
2023/10/15 08:47:33;;;;;;;10.27;1.17;;;;;;;7.25;nan;102195.84;5033790;28;20120;-79
2023/10/15 08:50:00;;;;;;;8.82;1.35;;;;;;;7.05;nan;102200.44;5033670;28;20113;-80
2023/10/15 08:52:27;;;;;;;8.25;1.33;;;;;;;6.96;nan;102192.16;5033966;28;20076;-81
2023/10/15 08:54:53;;;;;;;6.57;1.20;;;;;;;6.90;nan;102201.28;5033409;28;20108;-80
2023/10/15 08:57:19;;;;;;;12.02;1.55;;;;;;;6.85;nan;102213.88;5016130;28;20029;-80
2023/10/15 08:59:45;;;;;;;11.65;2.25;;;;;;;6.82;nan;102214.03;5033647;28;20037;-81
2023/10/15 09:02:10;;;;;;;8.07;1.00;;;;;;;6.92;nan;102207.31;5033649;28;20538;-83
2023/10/15 09:04:36;;;;;;;13.45;1.42;;;;;;;7.13;nan;102217.72;5033517;28;20464;-79
2023/10/15 09:07:08;;;;;;;9.32;1.60;;;;;;;7.40;nan;102226.81;5033501;28;20037;-79
2023/10/15 09:09:33;;;;;;;;;;;;;;;7.82;nan;102237.72;5022440;28;20053;-79
2023/10/15 09:11:59;;;;;;;13.88;2.05;;;;;;;7.76;nan;102235.41;5053939;28;20310;-79
2023/10/15 09:14:38;;;;;;;7.40;1.67;;;;;;;7.51;nan;102234.16;5051820;28;20036;-78
2023/10/15 09:17:03;;;;;;;12.90;1.35;;;;;;;7.26;nan;102249.69;5053304;28;20060;-78
2023/10/15 09:19:31;;;;;;;15.23;1.98;;;;;;;7.11;nan;102256.66;5053795;28;20409;-79
2023/10/15 09:21:57;;;;;;;12.82;1.83;;;;;;;6.98;nan;102257.28;5051927;28;20047;-78
2023/10/15 09:24:22;;;;;;;11.48;1.50;;;;;;;6.85;nan;102250.91;5052330;28;20042;-77
2023/10/15 09:26:48;;;;;;;9.45;1.45;;;;;;;7.21;nan;102252.53;5053407;28;20473;-81
2023/10/15 09:29:19;;;;;;;7.80;1.30;;;;;;;8.72;nan;102251.09;5052720;28;20056;-81
2023/10/15 09:31:44;;;;;;;12.45;2.22;;;;;;;10.19;nan;102243.56;5053188;28;20103;-76
2023/10/15 09:34:11;;;;;;;5.65;1.00;;;;;;;11.22;nan;102246.31;5053125;28;20462;-77
2023/10/15 09:36:38;;;;;;;3.10;0.70;;;;;;;11.81;nan;102237.63;5051773;28;20338;-79
2023/10/15 09:39:13;;;;;;;7.60;1.00;;;;;;;11.96;nan;102238.34;5053480;28;20025;-79
2023/10/15 09:41:41;;;;;;;17.73;1.50;;;;;;;12.30;nan;102243.84;5051328;28;20037;-79
2023/10/15 09:44:14;;;;;;;5.93;1.20;;;;;;;11.86;nan;102247.97;5052990;28;20226;-78
2023/10/15 09:46:43;;;;;;;7.57;1.27;;;;;;;11.82;nan;102250.03;5052702;28;20052;-77
2023/10/15 09:49:09;;;;;;;11.60;1.50;;;;;;;11.53;nan;102260.13;5052581;28;20041;-74
2023/10/15 09:51:38;;;;;;;10.43;2.03;;;;;;;11.21;nan;102273.06;5051556;28;20040;-74
2023/10/15 09:54:05;;;;;;;16.25;1.70;;;;;;;10.85;nan;102274.69;5051614;28;20476;-77
2023/10/15 09:56:34;;;;;;;4.28;1.15;;;;;;;10.76;nan;102278.84;5052804;28;20123;-77
2023/10/15 09:59:02;;;;;;;9.43;1.30;;;;;;;11.25;nan;102279.91;5035027;28;20033;-78
2023/10/15 10:01:30;;;;;;;10.30;1.42;;;;;;;11.67;nan;102282.28;5051696;28;20039;-77
2023/10/15 10:04:23;;;;;;;6.65;1.20;;;;;;;11.67;nan;102276.94;5050311;28;20108;-77
2023/10/15 10:07:36;;;;;;;7.40;1.60;;;;;;;11.55;nan;102278.69;5049179;28;20155;-79
2023/10/15 10:10:21;;;;;;;5.10;1.50;;;;;;;11.46;nan;102278.38;5005959;28;20129;-76
2023/10/15 10:13:28;;;;;;;6.28;1.30;;;;;;;10.91;nan;102269.81;5030518;28;20390;-76
2023/10/15 10:15:57;;;;;;;12.18;1.67;;;;;;;10.58;nan;102272.97;5011565;28;20033;-76
2023/10/15 10:18:24;;;;;;;7.50;1.35;;;;;;;10.58;nan;102272.97;5029747;28;20033;-77
2023/10/15 10:20:50;;;;;;;9.65;1.48;;;;;;;10.79;nan;102277.78;5012359;28;20445;-77
2023/10/15 10:23:17;;;;;;;13.35;2.00;;;;;;;11.07;nan;102279.38;5029763;28;20091;-77
2023/10/15 10:25:46;;;;;;;9.32;1.92;;;;;;;11.05;nan;102289.31;5029922;28;20033;-76
2023/10/15 10:28:13;;;;;;;9.00;1.50;;;;;;;10.87;nan;102296.75;5030595;28;20132;-77
2023/10/15 10:30:51;;;;;;;7.28;1.35;;;;;;;10.40;nan;102297.22;5031366;28;20430;-76
2023/10/15 10:33:40;;;;;;;8.70;1.63;;;;;;;10.05;nan;102295.03;5031612;28;20355;-78
2023/10/15 10:36:20;;;;;;;6.88;1.38;;;;;;;9.88;nan;102306.75;5031333;28;20018;-77
2023/10/15 10:39:15;;;;;;;10.27;1.77;;;;;;;9.99;nan;102305.22;5031830;28;20029;-77
2023/10/15 10:41:43;;;;;;;7.55;1.50;;;;;;;10.32;nan;102306.63;5031697;28;20026;-77
2023/10/15 10:44:33;;;;;;;11.55;1.52;;;;;;;10.60;nan;102305.66;5013756;28;20033;-78
2023/10/15 10:47:17;;;;;;;7.55;1.23;;;;;;;10.68;nan;102310.47;5031468;28;20040;-77
2023/10/15 10:49:53;;;;;;;11.30;2.20;;;;;;;10.69;nan;102307.69;5031579;28;20025;-77
2023/10/15 10:52:27;;;;;;;7.47;1.20;;;;;;;10.61;nan;102314.50;5031174;28;20052;-80
2023/10/15 10:54:56;;;;;;;10.75;1.10;;;;;;;10.63;nan;102312.56;5013863;28;20531;-76
2023/10/15 10:57:27;;;;;;;7.88;1.38;;;;;;;10.63;nan;102312.56;5031268;28;20489;-77
2023/10/15 10:59:52;;;;;;;5.75;1.38;;;;;;;10.59;nan;102322.56;5014146;28;20117;-77
2023/10/15 11:02:20;;;;;;;6.55;1.38;;;;;;;10.59;nan;102317.25;5031570;28;20496;-77
2023/10/15 11:04:47;;;;;;;5.95;1.27;;;;;;;10.70;nan;102316.53;5031052;28;20029;-77
2023/10/15 11:07:13;;;;;;;5.30;1.30;;;;;;;10.75;nan;102320.59;5013223;28;20045;-77
2023/10/15 11:09:40;;;;;;;6.22;1.50;;;;;;;10.71;nan;102326.22;5030982;28;20077;-76
2023/10/15 11:12:12;;;;;;;4.25;1.33;;;;;;;10.68;nan;102319.28;5030998;28;20468;-77
2023/10/15 11:14:39;;;;;;;5.97;1.33;;;;;;;10.74;nan;102332.19;5031232;28;20041;-76
2023/10/15 11:17:07;;;;;;;7.28;1.30;;;;;;;10.84;nan;102328.88;5013540;28;20084;-77
2023/10/15 11:19:33;;;;;;;8.20;1.08;;;;;;;10.89;nan;102327.63;5030640;28;20064;-77
2023/10/15 11:21:59;;;;;;;6.53;1.45;;;;;;;10.94;nan;102333.50;5030563;28;20103;-76
2023/10/15 11:24:28;;;;;;;6.47;1.30;;;;;;;11.18;nan;102332.78;5030634;28;20533;-76
2023/10/15 11:26:54;;;;;;;5.82;1.20;;;;;;;11.20;nan;102338.84;5030692;28;20433;-76
2023/10/15 11:29:22;;;;;;;7.20;1.13;;;;;;;11.29;nan;102338.19;5031022;28;20038;-76
2023/10/15 11:31:50;;;;;;;7.25;1.27;;;;;;;11.17;nan;102344.38;5030631;28;20052;-76
2023/10/15 11:34:19;;;;;;;7.50;1.30;;;;;;;11.00;nan;102339.34;5031221;28;20056;-77
2023/10/15 11:36:48;;;;;;;5.90;1.33;;;;;;;10.82;nan;102342.31;5030592;28;20466;-75
2023/10/15 11:40:00;;;;;;;6.63;1.42;;;;;;;10.61;nan;102335.78;5030916;28;20112;-76
2023/10/15 11:42:02;;;;;;;11.05;2.13;;;;;;;10.38;nan;102336.34;5023597;28;20077;-76
2023/10/15 11:44:30;;;;;;;7.00;1.50;;;;;;;10.19;nan;102343.81;5030870;28;20033;-76
2023/10/15 11:46:57;;;;;;;11.55;2.08;;;;;;;10.00;nan;102354.75;5030644;28;20084;-78
2023/10/15 11:49:24;;;;;;;12.40;1.50;;;;;;;9.85;nan;102354.81;5030510;28;20116;-77
2023/10/15 11:51:55;;;;;;;12.07;1.48;;;;;;;9.88;nan;102353.75;5030321;28;20045;-77
2023/10/15 11:54:23;;;;;;;7.82;1.27;;;;;;;9.86;nan;102353.00;5030506;28;20524;-77
2023/10/15 11:56:50;;;;;;;4.57;1.02;;;;;;;9.97;nan;102355.84;5030700;28;20037;-76
2023/10/15 11:59:16;;;;;;;7.03;1.30;;;;;;;10.19;nan;102347.31;5030528;28;20112;-77
2023/10/15 12:01:44;;;;;;;4.78;1.30;;;;;;;10.47;nan;102358.84;5030689;28;20030;-79
2023/10/15 12:04:11;;;;;;;4.82;1.25;;;;;;;10.52;nan;102354.06;5030738;28;20052;-75
2023/10/15 12:06:37;;;;;;;7.38;1.10;;;;;;;10.43;nan;102357.34;5030549;28;20103;-77